Aviation Digital Data Service (ADDS)

Output produced by METARs form (2108 UTC 27 February 2015)
found at http://aviationweather.gov/adds/metars/
 
KEWN 271737Z 2718/2818 36008KT P6SM SCT250 
     FM280100 02005KT P6SM SCT015 
     FM280800 02008KT P6SM SCT250 
     FM281600 02012KT P6SM BKN150